Menomonee — 5BKY4 — position and weather

sailwx.info

Track history (hours):
 
Tides and Currents Weather Stations Pressure Air Temp Water Temp Dewpoint Dewpoint Depression Visibility Wind Speed Wind Dir Waves Ship Positions

Menomonee

Last reported at 2018-Jun-14 09:10 UTC. Time now 2018-Jun-25 03:42 UTC.
Position N 37°01' E 002°54'.
Warning: this ship's position is 10 days out of date.

Length 190 m; draft 12.2 m.

Type: Cargo ship. MMSI: 212968000.

Date/timePositionNaut miles runAvg speedWind from/ knotsBaromVisibWave heightAir tempDewpointWater temp
2018-Jun-14 09:10N 37°01' E 002°54'213.2
2018-Jun-14 09:00N 37°01' E 002°51'713.3
2018-Jun-14 08:30N 37°00' E 002°43'4614.2
2018-Jun-14 05:17N 36°53' E 001°46'1714.5
2018-Jun-14 04:05N 36°50' E 001°25'114.5
2018-Jun-14 04:00N 36°50' E 001°23'714.4
2018-Jun-14 03:30N 36°49' E 001°15'714.4
2018-Jun-14 03:00N 36°48' E 001°06'714.2
2018-Jun-14 02:30N 36°46' E 000°57'714.1
2018-Jun-14 02:00N 36°45' E 000°48'814.0
2018-Jun-14 01:28N 36°44' E 000°39'613.9
2018-Jun-14 01:00N 36°43' E 000°31'713.7
2018-Jun-14 00:30N 36°42' E 000°23'713.7
2018-Jun-14 00:00N 36°41' E 000°14'713.8
2018-Jun-13 23:30N 36°40' E 000°06'1513.6
2018-Jun-13 22:26N 36°38' W 000°12'1113.2
2018-Jun-13 21:36N 36°36' W 000°26'113.2
2018-Jun-13 21:30N 36°36' W 000°27'813.5
2018-Jun-13 20:55N 36°34' W 000°37'613.6
2018-Jun-13 20:30N 36°33' W 000°44'20814.4
2018-Jun-13 06:02N 36°02' W 004°59'117.1
2018-Jun-13 05:59N 36°02' W 005°00'817.0
2018-Jun-13 05:30N 36°01' W 005°10'816.3
2018-Jun-13 05:00N 35°60' W 005°20'816.4
2018-Jun-13 04:30N 35°57' W 005°29'916.0
2018-Jun-13 03:58N 35°55' W 005°40'816.8
2018-Jun-13 03:30N 35°55' W 005°49'  
2018-Jun-10 08:25N 36°08' W 023°59'613.0
2018-Jun-10 07:59N 36°08' W 024°06'612.9
2018-Jun-10 07:30N 36°08' W 024°14'613.0
2018-Jun-10 07:00N 36°08' W 024°22'612.9
2018-Jun-10 06:30N 36°09' W 024°30'612.9
2018-Jun-10 06:00N 36°09' W 024°38'612.9
2018-Jun-10 05:30N 36°09' W 024°46'713.0
2018-Jun-10 05:00N 36°09' W 024°54'713.3
2018-Jun-10 04:30N 36°09' W 025°02'713.2
2018-Jun-10 04:00N 36°09' W 025°10'713.0
2018-Jun-10 03:30N 36°09' W 025°18'713.3
2018-Jun-10 03:00N 36°09' W 025°27'713.2
2018-Jun-10 02:30N 36°09' W 025°35'713.2
2018-Jun-10 02:00N 36°09' W 025°43'713.1
2018-Jun-10 01:30N 36°10' W 025°51'713.4
2018-Jun-10 01:00N 36°10' W 025°59'17113.4
2018-Jun-09 12:17N 36°12' W 029°31'512.9
2018-Jun-09 11:52N 36°13' W 029°37'1413.0
2018-Jun-09 10:47N 36°13' W 029°55'413.0
2018-Jun-09 10:30N 36°13' W 029°59'612.9
2018-Jun-09 10:01N 36°13' W 030°07'713.1
2018-Jun-09 09:30N 36°13' W 030°15'713.3
2018-Jun-09 09:00N 36°13' W 030°23'813.5
2018-Jun-09 08:26N 36°13' W 030°33'713.4
2018-Jun-09 07:56N 36°13' W 030°41'613.6
2018-Jun-09 07:29N 36°14' W 030°49'1713.4
2018-Jun-09 06:14N 36°14' W 031°10'413.1
2018-Jun-09 05:57N 36°14' W 031°14'613.3
2018-Jun-09 05:30N 36°14' W 031°22'2313.4
2018-Jun-09 03:46N 36°14' W 031°50'  
Track history (hours):
 
Tides and Currents Weather Stations Pressure Air Temp Water Temp Dewpoint Dewpoint Depression Visibility Wind Speed Wind Dir Waves Ship Positions

Menomonee

Last reported at 2018-Jun-14 09:10 UTC. Time now 2018-Jun-25 03:42 UTC.
Position N 37°01' E 002°54'.
Warning: this ship's position is 10 days out of date.

Length 190 m; draft 12.2 m.

Type: Cargo ship. MMSI: 212968000.

Date/timePositionNaut miles runAvg speedWind from/ knotsBaromVisibWave heightAir tempDewpointWater temp
2018-Jun-14 09:10N 37°01' E 002°54'213.2
2018-Jun-14 09:00N 37°01' E 002°51'713.3
2018-Jun-14 08:30N 37°00' E 002°43'4614.2
2018-Jun-14 05:17N 36°53' E 001°46'1714.5
2018-Jun-14 04:05N 36°50' E 001°25'114.5
2018-Jun-14 04:00N 36°50' E 001°23'714.4
2018-Jun-14 03:30N 36°49' E 001°15'714.4
2018-Jun-14 03:00N 36°48' E 001°06'714.2
2018-Jun-14 02:30N 36°46' E 000°57'714.1
2018-Jun-14 02:00N 36°45' E 000°48'814.0
2018-Jun-14 01:28N 36°44' E 000°39'613.9
2018-Jun-14 01:00N 36°43' E 000°31'713.7
2018-Jun-14 00:30N 36°42' E 000°23'713.7
2018-Jun-14 00:00N 36°41' E 000°14'713.8
2018-Jun-13 23:30N 36°40' E 000°06'1513.6
2018-Jun-13 22:26N 36°38' W 000°12'1113.2
2018-Jun-13 21:36N 36°36' W 000°26'113.2
2018-Jun-13 21:30N 36°36' W 000°27'813.5
2018-Jun-13 20:55N 36°34' W 000°37'613.6
2018-Jun-13 20:30N 36°33' W 000°44'20814.4
2018-Jun-13 06:02N 36°02' W 004°59'117.1
2018-Jun-13 05:59N 36°02' W 005°00'817.0
2018-Jun-13 05:30N 36°01' W 005°10'816.3
2018-Jun-13 05:00N 35°60' W 005°20'816.4
2018-Jun-13 04:30N 35°57' W 005°29'916.0
2018-Jun-13 03:58N 35°55' W 005°40'816.8
2018-Jun-13 03:30N 35°55' W 005°49'  
2018-Jun-10 08:25N 36°08' W 023°59'613.0
2018-Jun-10 07:59N 36°08' W 024°06'612.9
2018-Jun-10 07:30N 36°08' W 024°14'613.0
2018-Jun-10 07:00N 36°08' W 024°22'612.9
2018-Jun-10 06:30N 36°09' W 024°30'612.9
2018-Jun-10 06:00N 36°09' W 024°38'612.9
2018-Jun-10 05:30N 36°09' W 024°46'713.0
2018-Jun-10 05:00N 36°09' W 024°54'713.3
2018-Jun-10 04:30N 36°09' W 025°02'713.2
2018-Jun-10 04:00N 36°09' W 025°10'713.0
2018-Jun-10 03:30N 36°09' W 025°18'713.3
2018-Jun-10 03:00N 36°09' W 025°27'713.2
2018-Jun-10 02:30N 36°09' W 025°35'713.2
2018-Jun-10 02:00N 36°09' W 025°43'713.1
2018-Jun-10 01:30N 36°10' W 025°51'713.4
2018-Jun-10 01:00N 36°10' W 025°59'17113.4
2018-Jun-09 12:17N 36°12' W 029°31'512.9
2018-Jun-09 11:52N 36°13' W 029°37'1413.0
2018-Jun-09 10:47N 36°13' W 029°55'413.0
2018-Jun-09 10:30N 36°13' W 029°59'612.9
2018-Jun-09 10:01N 36°13' W 030°07'713.1
2018-Jun-09 09:30N 36°13' W 030°15'713.3
2018-Jun-09 09:00N 36°13' W 030°23'813.5
2018-Jun-09 08:26N 36°13' W 030°33'713.4
2018-Jun-09 07:56N 36°13' W 030°41'613.6
2018-Jun-09 07:29N 36°14' W 030°49'1713.4
2018-Jun-09 06:14N 36°14' W 031°10'413.1
2018-Jun-09 05:57N 36°14' W 031°14'613.3
2018-Jun-09 05:30N 36°14' W 031°22'2313.4
2018-Jun-09 03:46N 36°14' W 031°50'  

Dump ship's entire track history